sensor_id;sensor_type;location;lat;lon;timestamp;pressure;altitude;pressure_sealevel;temperature;humidity
73455;BME280;61690;51.824;6.306;2023-06-19T00:01:39;100729.06;;;23.29;48.36
73455;BME280;61690;51.824;6.306;2023-06-19T00:04:05;100725.13;;;23.24;48.58
73455;BME280;61690;51.824;6.306;2023-06-19T00:06:30;100712.56;;;23.26;48.70
73455;BME280;61690;51.824;6.306;2023-06-19T00:08:55;100720.38;;;23.27;48.43
73455;BME280;61690;51.824;6.306;2023-06-19T00:11:20;100724.59;;;23.30;48.77
73455;BME280;61690;51.824;6.306;2023-06-19T00:13:46;100725.44;;;23.31;48.84
73455;BME280;61690;51.824;6.306;2023-06-19T00:16:11;100710.31;;;23.21;48.87
73455;BME280;61690;51.824;6.306;2023-06-19T00:18:36;100721.78;;;23.22;48.94
73455;BME280;61690;51.824;6.306;2023-06-19T00:21:06;100724.16;;;23.25;49.07
73455;BME280;61690;51.824;6.306;2023-06-19T00:23:32;100720.38;;;23.27;48.92
73455;BME280;61690;51.824;6.306;2023-06-19T00:25:57;100730.44;;;23.24;49.00
73455;BME280;61690;51.824;6.306;2023-06-19T00:28:26;100738.25;;;23.25;48.78
73455;BME280;61690;51.824;6.306;2023-06-19T00:30:51;100744.00;;;23.21;48.84
73455;BME280;61690;51.824;6.306;2023-06-19T00:33:16;100744.41;;;23.26;48.71
73455;BME280;61690;51.824;6.306;2023-06-19T00:35:41;100744.28;;;23.27;48.64
73455;BME280;61690;51.824;6.306;2023-06-19T00:38:07;100749.59;;;23.27;48.82
73455;BME280;61690;51.824;6.306;2023-06-19T00:40:34;100753.81;;;23.30;48.71
73455;BME280;61690;51.824;6.306;2023-06-19T00:43:00;100761.59;;;23.32;48.35
73455;BME280;61690;51.824;6.306;2023-06-19T00:45:26;100748.75;;;23.27;48.45
73455;BME280;61690;51.824;6.306;2023-06-19T00:47:53;100751.16;;;23.30;48.37
73455;BME280;61690;51.824;6.306;2023-06-19T00:50:18;100764.56;;;23.38;48.01
73455;BME280;61690;51.824;6.306;2023-06-19T00:52:44;100775.44;;;23.35;47.95
73455;BME280;61690;51.824;6.306;2023-06-19T00:55:10;100770.44;;;23.32;48.13
73455;BME280;61690;51.824;6.306;2023-06-19T00:57:36;100768.72;;;23.31;48.00
73455;BME280;61690;51.824;6.306;2023-06-19T01:00:02;100767.06;;;23.30;48.26
73455;BME280;61690;51.824;6.306;2023-06-19T01:02:32;100776.00;;;23.29;48.13
73455;BME280;61690;51.824;6.306;2023-06-19T01:04:58;100776.69;;;23.31;48.14
73455;BME280;61690;51.824;6.306;2023-06-19T01:07:32;100776.00;;;23.29;48.14
73455;BME280;61690;51.824;6.306;2023-06-19T01:10:04;100785.66;;;23.30;47.80
73455;BME280;61690;51.824;6.306;2023-06-19T01:12:34;100783.00;;;23.30;48.00
73455;BME280;61690;51.824;6.306;2023-06-19T01:15:03;100786.34;;;23.32;48.09
73455;BME280;61690;51.824;6.306;2023-06-19T01:17:30;100784.66;;;23.31;47.88
73455;BME280;61690;51.824;6.306;2023-06-19T01:19:57;100781.44;;;23.27;47.94
73455;BME280;61690;51.824;6.306;2023-06-19T01:22:30;100775.69;;;23.22;48.05
73455;BME280;61690;51.824;6.306;2023-06-19T01:24:55;100777.94;;;23.27;47.89
73455;BME280;61690;51.824;6.306;2023-06-19T01:27:23;100790.50;;;23.25;48.10
73455;BME280;61690;51.824;6.306;2023-06-19T01:29:51;100791.66;;;23.32;48.15
73455;BME280;61690;51.824;6.306;2023-06-19T01:32:20;100791.47;;;23.24;48.39
73455;BME280;61690;51.824;6.306;2023-06-19T01:34:48;100788.81;;;23.24;48.31
73455;BME280;61690;51.824;6.306;2023-06-19T01:37:14;100785.31;;;23.23;48.19
73455;BME280;61690;51.824;6.306;2023-06-19T01:39:42;100786.44;;;23.21;48.40
73455;BME280;61690;51.824;6.306;2023-06-19T01:42:07;100797.19;;;23.19;48.51
73455;BME280;61690;51.824;6.306;2023-06-19T01:44:36;100790.88;;;23.20;48.31
73455;BME280;61690;51.824;6.306;2023-06-19T01:47:08;100795.50;;;23.18;48.63
73455;BME280;61690;51.824;6.306;2023-06-19T01:49:34;100802.09;;;23.24;48.26
73455;BME280;61690;51.824;6.306;2023-06-19T01:51:59;100808.50;;;23.21;48.66
73455;BME280;61690;51.824;6.306;2023-06-19T01:54:26;100805.97;;;23.20;48.39
73455;BME280;61690;51.824;6.306;2023-06-19T01:56:51;100811.28;;;23.20;48.35
73455;BME280;61690;51.824;6.306;2023-06-19T01:59:16;100808.22;;;23.15;48.90
73455;BME280;61690;51.824;6.306;2023-06-19T02:01:41;100807.94;;;23.18;48.18
73455;BME280;61690;51.824;6.306;2023-06-19T02:04:07;100808.75;;;23.18;47.77
73455;BME280;61690;51.824;6.306;2023-06-19T02:06:32;100808.38;;;23.23;48.18
73455;BME280;61690;51.824;6.306;2023-06-19T02:08:57;100806.56;;;23.23;48.07
73455;BME280;61690;51.824;6.306;2023-06-19T02:11:23;100804.03;;;23.22;48.20
73455;BME280;61690;51.824;6.306;2023-06-19T02:13:48;100807.38;;;23.24;48.47
73455;BME280;61690;51.824;6.306;2023-06-19T02:16:13;100804.75;;;23.24;48.25
73455;BME280;61690;51.824;6.306;2023-06-19T02:18:38;100818.53;;;23.18;48.70
73455;BME280;61690;51.824;6.306;2023-06-19T02:21:04;100823.97;;;23.16;48.54
73455;BME280;61690;51.824;6.306;2023-06-19T02:23:29;100822.44;;;23.14;48.68
73455;BME280;61690;51.824;6.306;2023-06-19T02:25:54;100819.78;;;23.14;48.72
73455;BME280;61690;51.824;6.306;2023-06-19T02:28:20;100823.69;;;23.09;48.87
73455;BME280;61690;51.824;6.306;2023-06-19T02:30:45;100825.34;;;23.10;49.00
73455;BME280;61690;51.824;6.306;2023-06-19T02:33:10;100832.34;;;23.12;48.97
73455;BME280;61690;51.824;6.306;2023-06-19T02:35:36;100832.88;;;23.05;48.77
73455;BME280;61690;51.824;6.306;2023-06-19T02:38:01;100833.09;;;23.02;49.11
73455;BME280;61690;51.824;6.306;2023-06-19T02:40:26;100836.75;;;23.01;49.16
73455;BME280;61690;51.824;6.306;2023-06-19T02:42:51;100835.28;;;22.97;49.07
73455;BME280;61690;51.824;6.306;2023-06-19T02:45:17;100841.34;;;22.99;49.32
73455;BME280;61690;51.824;6.306;2023-06-19T02:47:42;100845.66;;;23.00;49.80
73455;BME280;61690;51.824;6.306;2023-06-19T02:50:08;100844.22;;;22.96;49.66
73455;BME280;61690;51.824;6.306;2023-06-19T02:52:33;100854.59;;;22.99;49.32
73455;BME280;61690;51.824;6.306;2023-06-19T02:54:58;100860.50;;;23.03;49.42
73455;BME280;61690;51.824;6.306;2023-06-19T02:57:24;100862.81;;;22.96;49.41
73455;BME280;61690;51.824;6.306;2023-06-19T02:59:49;100868.56;;;23.01;49.26
73455;BME280;61690;51.824;6.306;2023-06-19T03:02:15;100865.97;;;22.90;49.92
73455;BME280;61690;51.824;6.306;2023-06-19T03:04:40;100881.31;;;22.86;49.74
73455;BME280;61690;51.824;6.306;2023-06-19T03:07:09;100873.81;;;22.92;50.06
73455;BME280;61690;51.824;6.306;2023-06-19T03:09:34;100886.66;;;23.07;49.77
73455;BME280;61690;51.824;6.306;2023-06-19T03:11:59;100888.63;;;22.94;49.93
73455;BME280;61690;51.824;6.306;2023-06-19T03:14:25;100888.69;;;22.83;50.57
73455;BME280;61690;51.824;6.306;2023-06-19T03:16:50;100886.97;;;22.82;50.62
73455;BME280;61690;51.824;6.306;2023-06-19T03:19:15;100885.56;;;22.78;50.89
73455;BME280;61690;51.824;6.306;2023-06-19T03:21:40;100891.84;;;22.77;50.88
73455;BME280;61690;51.824;6.306;2023-06-19T03:24:06;100895.94;;;22.81;50.70
73455;BME280;61690;51.824;6.306;2023-06-19T03:26:32;100900.16;;;22.72;51.02
73455;BME280;61690;51.824;6.306;2023-06-19T03:28:57;100904.00;;;22.79;51.03
73455;BME280;61690;51.824;6.306;2023-06-19T03:31:22;100898.63;;;22.69;51.32
73455;BME280;61690;51.824;6.306;2023-06-19T03:33:47;100908.47;;;22.79;51.23
73455;BME280;61690;51.824;6.306;2023-06-19T03:38:38;100910.78;;;22.72;51.47
73455;BME280;61690;51.824;6.306;2023-06-19T03:41:03;100908.13;;;22.72;51.52
73455;BME280;61690;51.824;6.306;2023-06-19T03:43:28;100905.75;;;22.69;51.89
73455;BME280;61690;51.824;6.306;2023-06-19T03:45:54;100912.50;;;22.62;52.12
73455;BME280;61690;51.824;6.306;2023-06-19T03:48:19;100922.53;;;22.58;52.93
73455;BME280;61690;51.824;6.306;2023-06-19T03:50:44;100916.13;;;22.61;52.32
73455;BME280;61690;51.824;6.306;2023-06-19T03:53:10;100912.13;;;22.66;52.35
73455;BME280;61690;51.824;6.306;2023-06-19T03:55:35;100923.31;;;22.70;52.38
73455;BME280;61690;51.824;6.306;2023-06-19T03:58:00;100918.13;;;22.68;52.22
73455;BME280;61690;51.824;6.306;2023-06-19T04:00:26;100918.41;;;22.65;52.62
73455;BME280;61690;51.824;6.306;2023-06-19T04:02:51;100922.66;;;22.57;52.88
73455;BME280;61690;51.824;6.306;2023-06-19T04:05:18;100924.13;;;22.49;53.23
73455;BME280;61690;51.824;6.306;2023-06-19T04:07:45;100936.06;;;22.55;53.23
73455;BME280;61690;51.824;6.306;2023-06-19T04:10:10;100929.66;;;22.58;53.45
73455;BME280;61690;51.824;6.306;2023-06-19T04:12:37;100930.16;;;22.51;53.40
73455;BME280;61690;51.824;6.306;2023-06-19T04:15:02;100937.44;;;22.27;54.19
73455;BME280;61690;51.824;6.306;2023-06-19T04:17:28;100937.03;;;22.20;54.59
73455;BME280;61690;51.824;6.306;2023-06-19T04:19:53;100948.53;;;21.98;55.12
73455;BME280;61690;51.824;6.306;2023-06-19T04:22:18;100958.03;;;22.01;55.22
73455;BME280;61690;51.824;6.306;2023-06-19T04:24:43;100952.72;;;22.01;55.48
73455;BME280;61690;51.824;6.306;2023-06-19T04:27:09;100946.72;;;21.87;56.03
73455;BME280;61690;51.824;6.306;2023-06-19T04:29:34;100953.00;;;21.86;56.36
73455;BME280;61690;51.824;6.306;2023-06-19T04:32:01;100952.38;;;21.94;55.90
73455;BME280;61690;51.824;6.306;2023-06-19T04:34:28;100962.59;;;21.99;55.97
73455;BME280;61690;51.824;6.306;2023-06-19T04:36:54;100960.44;;;21.81;56.45
73455;BME280;61690;51.824;6.306;2023-06-19T04:39:23;100966.81;;;22.12;55.69
73455;BME280;61690;51.824;6.306;2023-06-19T04:41:48;100970.28;;;22.24;55.20
73455;BME280;61690;51.824;6.306;2023-06-19T04:44:14;100970.88;;;22.39;54.99
73455;BME280;61690;51.824;6.306;2023-06-19T04:46:40;100968.44;;;22.59;54.70
73455;BME280;61690;51.824;6.306;2023-06-19T04:49:06;100981.34;;;22.63;54.28
73455;BME280;61690;51.824;6.306;2023-06-19T04:51:31;100984.69;;;22.65;54.45
73455;BME280;61690;51.824;6.306;2023-06-19T04:54:00;100974.09;;;22.65;54.41
73455;BME280;61690;51.824;6.306;2023-06-19T04:56:25;100983.97;;;22.63;54.66
73455;BME280;61690;51.824;6.306;2023-06-19T04:58:50;100982.72;;;22.79;54.46
73455;BME280;61690;51.824;6.306;2023-06-19T05:01:16;100977.31;;;22.80;54.38
73455;BME280;61690;51.824;6.306;2023-06-19T05:03:44;100977.16;;;22.82;54.21
73455;BME280;61690;51.824;6.306;2023-06-19T05:06:12;100972.31;;;22.87;54.07
73455;BME280;61690;51.824;6.306;2023-06-19T05:08:38;100974.47;;;22.93;54.12
73455;BME280;61690;51.824;6.306;2023-06-19T05:11:03;100975.56;;;22.58;55.32
73455;BME280;61690;51.824;6.306;2023-06-19T05:13:28;100981.13;;;22.55;55.64
73455;BME280;61690;51.824;6.306;2023-06-19T05:15:54;100984.50;;;22.46;56.04
73455;BME280;61690;51.824;6.306;2023-06-19T05:18:21;100987.28;;;22.44;56.24
73455;BME280;61690;51.824;6.306;2023-06-19T05:20:46;100987.59;;;22.51;55.88
73455;BME280;61690;51.824;6.306;2023-06-19T05:23:11;100981.16;;;22.44;56.13
73455;BME280;61690;51.824;6.306;2023-06-19T05:25:37;100990.97;;;22.53;56.04
73455;BME280;61690;51.824;6.306;2023-06-19T05:28:02;100994.63;;;22.52;55.80
73455;BME280;61690;51.824;6.306;2023-06-19T05:30:28;100986.38;;;22.66;55.66
73455;BME280;61690;51.824;6.306;2023-06-19T05:32:54;100995.91;;;22.69;55.78
73455;BME280;61690;51.824;6.306;2023-06-19T05:35:19;101001.25;;;22.90;55.04
73455;BME280;61690;51.824;6.306;2023-06-19T05:37:44;101006.44;;;22.92;54.86
73455;BME280;61690;51.824;6.306;2023-06-19T05:40:10;101001.03;;;22.82;55.42
73455;BME280;61690;51.824;6.306;2023-06-19T05:42:36;101012.09;;;22.87;55.27
73455;BME280;61690;51.824;6.306;2023-06-19T05:45:03;101015.22;;;22.92;55.14
73455;BME280;61690;51.824;6.306;2023-06-19T05:47:28;101017.38;;;22.98;55.09
73455;BME280;61690;51.824;6.306;2023-06-19T05:49:55;101015.22;;;23.03;54.67
73455;BME280;61690;51.824;6.306;2023-06-19T05:52:21;101025.06;;;23.13;54.38
73455;BME280;61690;51.824;6.306;2023-06-19T05:54:47;101012.53;;;23.15;54.44
73455;BME280;61690;51.824;6.306;2023-06-19T05:57:12;101020.16;;;22.97;55.02
73455;BME280;61690;51.824;6.306;2023-06-19T05:59:38;101027.38;;;22.95;54.76
73455;BME280;61690;51.824;6.306;2023-06-19T06:02:03;101028.41;;;22.82;55.98
73455;BME280;61690;51.824;6.306;2023-06-19T06:04:29;101030.88;;;22.95;54.97
73455;BME280;61690;51.824;6.306;2023-06-19T06:06:56;101025.00;;;22.92;55.36
73455;BME280;61690;51.824;6.306;2023-06-19T06:09:21;101031.97;;;22.93;55.17
73455;BME280;61690;51.824;6.306;2023-06-19T06:11:46;101029.34;;;22.93;55.31
73455;BME280;61690;51.824;6.306;2023-06-19T06:14:12;101038.13;;;22.93;55.52
73455;BME280;61690;51.824;6.306;2023-06-19T06:16:37;101039.22;;;22.90;55.62
73455;BME280;61690;51.824;6.306;2023-06-19T06:19:02;101044.28;;;22.94;55.47
73455;BME280;61690;51.824;6.306;2023-06-19T06:21:28;101038.41;;;22.90;55.50
73455;BME280;61690;51.824;6.306;2023-06-19T06:23:53;101039.22;;;22.90;55.84
73455;BME280;61690;51.824;6.306;2023-06-19T06:26:19;101045.34;;;23.02;55.48
73455;BME280;61690;51.824;6.306;2023-06-19T06:28:45;101047.66;;;22.96;55.94
73455;BME280;61690;51.824;6.306;2023-06-19T06:31:10;101045.84;;;22.96;55.75
73455;BME280;61690;51.824;6.306;2023-06-19T06:33:35;101048.88;;;22.92;55.95
73455;BME280;61690;51.824;6.306;2023-06-19T06:36:01;101048.09;;;23.01;55.59
73455;BME280;61690;51.824;6.306;2023-06-19T06:38:26;101039.81;;;22.94;55.78
73455;BME280;61690;51.824;6.306;2023-06-19T06:40:51;101053.31;;;22.91;56.11
73455;BME280;61690;51.824;6.306;2023-06-19T06:43:17;101060.78;;;22.97;56.05
73455;BME280;61690;51.824;6.306;2023-06-19T06:45:42;101059.22;;;22.95;55.85
73455;BME280;61690;51.824;6.306;2023-06-19T06:48:08;101063.50;;;22.86;56.06
73455;BME280;61690;51.824;6.306;2023-06-19T06:50:34;101063.44;;;22.97;55.96
73455;BME280;61690;51.824;6.306;2023-06-19T06:53:00;101075.22;;;23.16;55.54
73455;BME280;61690;51.824;6.306;2023-06-19T06:55:25;101067.66;;;23.00;55.95
73455;BME280;61690;51.824;6.306;2023-06-19T06:57:51;101075.41;;;22.92;56.17
73455;BME280;61690;51.824;6.306;2023-06-19T07:00:16;101071.38;;;22.97;56.39
73455;BME280;61690;51.824;6.306;2023-06-19T07:02:43;101075.13;;;22.95;56.23
73455;BME280;61690;51.824;6.306;2023-06-19T07:05:09;101088.66;;;23.03;55.91
73455;BME280;61690;51.824;6.306;2023-06-19T07:07:35;101083.78;;;23.19;54.87
73455;BME280;61690;51.824;6.306;2023-06-19T07:10:00;101080.75;;;23.24;54.60
73455;BME280;61690;51.824;6.306;2023-06-19T07:12:25;101085.59;;;23.19;54.41
73455;BME280;61690;51.824;6.306;2023-06-19T07:14:54;101090.19;;;23.17;54.52
73455;BME280;61690;51.824;6.306;2023-06-19T07:17:20;101096.81;;;23.22;54.41
73455;BME280;61690;51.824;6.306;2023-06-19T07:19:45;101101.97;;;23.24;54.60
73455;BME280;61690;51.824;6.306;2023-06-19T07:22:11;101103.91;;;23.22;54.38
73455;BME280;61690;51.824;6.306;2023-06-19T07:24:36;101106.66;;;23.32;54.41
73455;BME280;61690;51.824;6.306;2023-06-19T07:27:02;101100.38;;;23.33;54.18
73455;BME280;61690;51.824;6.306;2023-06-19T07:29:27;101105.91;;;23.41;53.99
73455;BME280;61690;51.824;6.306;2023-06-19T07:31:52;101103.59;;;23.47;53.93
73455;BME280;61690;51.824;6.306;2023-06-19T07:34:18;101108.44;;;23.42;54.18
73455;BME280;61690;51.824;6.306;2023-06-19T07:36:43;101100.50;;;23.31;54.47
73455;BME280;61690;51.824;6.306;2023-06-19T07:39:09;101106.72;;;23.41;53.90
73455;BME280;61690;51.824;6.306;2023-06-19T07:41:35;101104.59;;;23.35;54.16
73455;BME280;61690;51.824;6.306;2023-06-19T07:44:00;101099.41;;;23.34;54.25
73455;BME280;61690;51.824;6.306;2023-06-19T07:46:25;101102.06;;;23.34;54.26
73455;BME280;61690;51.824;6.306;2023-06-19T07:48:51;101101.28;;;23.43;54.24
73455;BME280;61690;51.824;6.306;2023-06-19T07:51:16;101099.00;;;23.49;53.86
73455;BME280;61690;51.824;6.306;2023-06-19T07:53:41;101106.28;;;23.36;54.24
73455;BME280;61690;51.824;6.306;2023-06-19T07:56:08;101109.31;;;23.32;54.36
73455;BME280;61690;51.824;6.306;2023-06-19T07:58:34;101107.88;;;23.27;54.08
73455;BME280;61690;51.824;6.306;2023-06-19T08:00:59;101120.00;;;23.41;54.06
73455;BME280;61690;51.824;6.306;2023-06-19T08:03:25;101125.16;;;23.54;53.33
73455;BME280;61690;51.824;6.306;2023-06-19T08:05:50;101116.88;;;23.68;52.45
73455;BME280;61690;51.824;6.306;2023-06-19T08:08:15;101124.56;;;23.83;52.94
73455;BME280;61690;51.824;6.306;2023-06-19T08:10:41;101122.94;;;23.92;52.52
73455;BME280;61690;51.824;6.306;2023-06-19T08:13:07;101126.03;;;23.97;52.42
73455;BME280;61690;51.824;6.306;2023-06-19T08:15:32;101126.91;;;23.97;52.06
73455;BME280;61690;51.824;6.306;2023-06-19T08:17:57;101129.09;;;23.92;52.37
73455;BME280;61690;51.824;6.306;2023-06-19T08:20:23;101125.06;;;23.98;52.20
73455;BME280;61690;51.824;6.306;2023-06-19T08:22:48;101132.41;;;24.05;51.88
73455;BME280;61690;51.824;6.306;2023-06-19T08:25:13;101125.97;;;24.08;51.56
73455;BME280;61690;51.824;6.306;2023-06-19T08:27:39;101124.47;;;24.15;51.78
73455;BME280;61690;51.824;6.306;2023-06-19T08:30:04;101122.53;;;24.17;52.05
73455;BME280;61690;51.824;6.306;2023-06-19T08:32:30;101116.81;;;24.22;51.80
73455;BME280;61690;51.824;6.306;2023-06-19T08:34:55;101128.19;;;24.24;51.65
73455;BME280;61690;51.824;6.306;2023-06-19T08:37:21;101115.00;;;24.22;52.00
73455;BME280;61690;51.824;6.306;2023-06-19T08:39:46;101118.09;;;24.27;51.74
73455;BME280;61690;51.824;6.306;2023-06-19T08:42:11;101119.78;;;24.29;51.86
73455;BME280;61690;51.824;6.306;2023-06-19T08:44:37;101123.41;;;24.27;51.40
73455;BME280;61690;51.824;6.306;2023-06-19T08:47:03;101130.44;;;24.29;51.84
73455;BME280;61690;51.824;6.306;2023-06-19T08:49:29;101130.44;;;24.29;51.39
73455;BME280;61690;51.824;6.306;2023-06-19T08:51:55;101132.84;;;24.32;51.27
73455;BME280;61690;51.824;6.306;2023-06-19T08:54:21;101129.06;;;24.34;51.02
73455;BME280;61690;51.824;6.306;2023-06-19T08:56:47;101137.50;;;24.39;51.60
73455;BME280;61690;51.824;6.306;2023-06-19T08:59:17;101136.66;;;24.18;50.48
73455;BME280;61690;51.824;6.306;2023-06-19T09:01:47;101134.88;;;23.97;50.42
73455;BME280;61690;51.824;6.306;2023-06-19T09:04:21;101140.84;;;23.90;50.60
73455;BME280;61690;51.824;6.306;2023-06-19T09:06:58;101132.00;;;23.89;50.73
73455;BME280;61690;51.824;6.306;2023-06-19T09:09:25;101142.50;;;23.91;50.89
73455;BME280;61690;51.824;6.306;2023-06-19T09:14:31;101142.78;;;23.87;50.60
73455;BME280;61690;51.824;6.306;2023-06-19T09:16:56;101150.59;;;23.89;51.25
73455;BME280;61690;51.824;6.306;2023-06-19T09:19:21;101159.81;;;23.85;50.72
73455;BME280;61690;51.824;6.306;2023-06-19T09:21:47;101158.84;;;23.86;51.15
73455;BME280;61690;51.824;6.306;2023-06-19T09:24:12;101159.63;;;23.98;50.53
73455;BME280;61690;51.824;6.306;2023-06-19T09:26:38;101159.63;;;23.98;50.62
73455;BME280;61690;51.824;6.306;2023-06-19T09:29:10;101179.47;;;23.94;50.85
73455;BME280;61690;51.824;6.306;2023-06-19T09:31:36;101180.16;;;23.96;50.22
73455;BME280;61690;51.824;6.306;2023-06-19T09:34:03;101185.72;;;23.93;50.61
73455;BME280;61690;51.824;6.306;2023-06-19T09:36:31;101173.28;;;23.93;50.59
73455;BME280;61690;51.824;6.306;2023-06-19T09:38:59;101175.94;;;23.93;50.57
73455;BME280;61690;51.824;6.306;2023-06-19T09:41:25;101182.34;;;23.91;50.69
73455;BME280;61690;51.824;6.306;2023-06-19T09:43:54;101165.00;;;24.07;50.18
73455;BME280;61690;51.824;6.306;2023-06-19T09:46:26;101171.78;;;24.00;50.35
73455;BME280;61690;51.824;6.306;2023-06-19T09:48:53;101180.88;;;23.98;49.89
73455;BME280;61690;51.824;6.306;2023-06-19T09:51:29;101186.72;;;23.92;50.68
73455;BME280;61690;51.824;6.306;2023-06-19T09:53:56;101187.44;;;23.94;50.21
73455;BME280;61690;51.824;6.306;2023-06-19T09:56:24;101193.56;;;23.94;50.46
73455;BME280;61690;51.824;6.306;2023-06-19T09:58:52;101191.75;;;23.95;50.62
73455;BME280;61690;51.824;6.306;2023-06-19T10:01:18;101191.16;;;23.91;50.39
73455;BME280;61690;51.824;6.306;2023-06-19T10:03:47;101183.19;;;23.91;50.01
73455;BME280;61690;51.824;6.306;2023-06-19T10:06:14;101193.44;;;23.96;49.94
73455;BME280;61690;51.824;6.306;2023-06-19T10:08:42;101188.66;;;23.90;50.62
73455;BME280;61690;51.824;6.306;2023-06-19T10:11:08;101194.53;;;23.93;50.37
73455;BME280;61690;51.824;6.306;2023-06-19T10:13:35;101188.25;;;23.94;49.91
73455;BME280;61690;51.824;6.306;2023-06-19T10:16:02;101191.75;;;23.95;50.10
73455;BME280;61690;51.824;6.306;2023-06-19T10:18:27;101186.44;;;23.95;49.80
73455;BME280;61690;51.824;6.306;2023-06-19T10:20:56;101191.31;;;23.90;50.31
73455;BME280;61690;51.824;6.306;2023-06-19T10:23:23;101192.28;;;23.88;50.24
73455;BME280;61690;51.824;6.306;2023-06-19T10:25:57;101188.13;;;23.96;50.07
73455;BME280;61690;51.824;6.306;2023-06-19T10:31:08;101195.66;;;23.91;50.16
73455;BME280;61690;51.824;6.306;2023-06-19T10:33:35;101186.72;;;23.92;49.65
73455;BME280;61690;51.824;6.306;2023-06-19T10:36:19;101190.31;;;23.91;49.75
73455;BME280;61690;51.824;6.306;2023-06-19T10:38:47;101195.06;;;23.87;50.10
73455;BME280;61690;51.824;6.306;2023-06-19T10:41:20;101189.50;;;23.90;50.13
73455;BME280;61690;51.824;6.306;2023-06-19T10:43:58;101197.06;;;23.95;49.66
73455;BME280;61690;51.824;6.306;2023-06-19T10:46:24;101191.63;;;23.96;49.98
73455;BME280;61690;51.824;6.306;2023-06-19T10:48:54;101195.41;;;23.94;50.12
73455;BME280;61690;51.824;6.306;2023-06-19T10:51:24;101196.00;;;23.97;50.35
73455;BME280;61690;51.824;6.306;2023-06-19T10:53:49;101193.06;;;24.00;50.18
73455;BME280;61690;51.824;6.306;2023-06-19T10:56:15;101187.63;;;24.02;49.87
73455;BME280;61690;51.824;6.306;2023-06-19T10:58:40;101186.19;;;23.98;50.17
73455;BME280;61690;51.824;6.306;2023-06-19T11:01:05;101185.66;;;24.04;49.58
73455;BME280;61690;51.824;6.306;2023-06-19T11:03:31;101190.66;;;23.97;50.18
73455;BME280;61690;51.824;6.306;2023-06-19T11:05:57;101183.13;;;24.02;49.96
73455;BME280;61690;51.824;6.306;2023-06-19T11:08:22;101183.66;;;23.96;49.87
73455;BME280;61690;51.824;6.306;2023-06-19T11:10:49;101186.19;;;23.98;49.74
73455;BME280;61690;51.824;6.306;2023-06-19T11:13:19;101186.78;;;24.01;49.91
73455;BME280;61690;51.824;6.306;2023-06-19T11:15:45;101189.56;;;24.00;50.19
73455;BME280;61690;51.824;6.306;2023-06-19T11:18:15;101184.66;;;24.16;49.62
73455;BME280;61690;51.824;6.306;2023-06-19T11:20:51;101174.13;;;24.36;49.23
73455;BME280;61690;51.824;6.306;2023-06-19T11:23:27;101174.19;;;24.45;49.29
73455;BME280;61690;51.824;6.306;2023-06-19T11:25:53;101172.84;;;24.51;49.47
73455;BME280;61690;51.824;6.306;2023-06-19T11:28:19;101176.63;;;24.58;49.40
73455;BME280;61690;51.824;6.306;2023-06-19T11:30:48;101176.25;;;24.63;49.61
73455;BME280;61690;51.824;6.306;2023-06-19T11:33:18;101174.03;;;24.68;49.72
73455;BME280;61690;51.824;6.306;2023-06-19T11:35:48;101169.22;;;24.62;49.70
73455;BME280;61690;51.824;6.306;2023-06-19T11:38:25;101172.47;;;24.65;49.58
73455;BME280;61690;51.824;6.306;2023-06-19T11:40:51;101171.22;;;24.70;49.88
73455;BME280;61690;51.824;6.306;2023-06-19T11:45:49;101176.03;;;24.76;49.65
73455;BME280;61690;51.824;6.306;2023-06-19T11:48:24;101166.91;;;24.78;49.48
73455;BME280;61690;51.824;6.306;2023-06-19T11:50:49;101169.16;;;24.83;49.43
73455;BME280;61690;51.824;6.306;2023-06-19T11:53:16;101169.88;;;24.85;49.55
73455;BME280;61690;51.824;6.306;2023-06-19T11:55:41;101171.69;;;24.84;49.91
73455;BME280;61690;51.824;6.306;2023-06-19T11:58:07;101164.41;;;24.87;49.55
73455;BME280;61690;51.824;6.306;2023-06-19T12:00:32;101161.50;;;24.90;49.99
73455;BME280;61690;51.824;6.306;2023-06-19T12:02:57;101162.34;;;24.90;50.34
73455;BME280;61690;51.824;6.306;2023-06-19T12:05:23;101163.47;;;24.97;50.11
73455;BME280;61690;51.824;6.306;2023-06-19T12:07:49;101163.47;;;24.97;49.61
73455;BME280;61690;51.824;6.306;2023-06-19T12:10:14;101149.47;;;24.95;49.75
73455;BME280;61690;51.824;6.306;2023-06-19T12:12:40;101164.88;;;25.01;49.82
73455;BME280;61690;51.824;6.306;2023-06-19T12:15:06;101165.72;;;25.02;50.03
73455;BME280;61690;51.824;6.306;2023-06-19T12:17:32;101167.28;;;25.04;49.67
73455;BME280;61690;51.824;6.306;2023-06-19T12:19:58;101166.56;;;25.02;50.00
73455;BME280;61690;51.824;6.306;2023-06-19T12:22:23;101165.03;;;25.10;50.04
73455;BME280;61690;51.824;6.306;2023-06-19T12:24:48;101162.38;;;25.10;49.87
73455;BME280;61690;51.824;6.306;2023-06-19T12:27:14;101160.41;;;25.12;50.15
73455;BME280;61690;51.824;6.306;2023-06-19T12:29:39;101164.91;;;25.11;50.06
73455;BME280;61690;51.824;6.306;2023-06-19T12:32:05;101155.97;;;25.12;50.33
73455;BME280;61690;51.824;6.306;2023-06-19T12:34:30;101163.78;;;25.14;50.28
73455;BME280;61690;51.824;6.306;2023-06-19T12:36:56;101162.69;;;25.16;50.15
73455;BME280;61690;51.824;6.306;2023-06-19T12:39:22;101161.00;;;25.15;49.50
73455;BME280;61690;51.824;6.306;2023-06-19T12:41:47;101168.69;;;25.09;49.88
73455;BME280;61690;51.824;6.306;2023-06-19T12:44:13;101164.06;;;25.11;50.30
73455;BME280;61690;51.824;6.306;2023-06-19T12:46:38;101164.50;;;25.16;50.05
73455;BME280;61690;51.824;6.306;2023-06-19T12:49:04;101168.00;;;25.16;50.29
73455;BME280;61690;51.824;6.306;2023-06-19T12:51:30;101169.41;;;25.20;49.81
73455;BME280;61690;51.824;6.306;2023-06-19T12:53:55;101178.84;;;25.24;50.25
73455;BME280;61690;51.824;6.306;2023-06-19T12:56:20;101179.22;;;25.20;49.61